Time;durP1;ratioP1;P1;durP2;ratioP2;P2;SDS_P1;SDS_P2;PMS_P1;PMS_P2;Temp;Humidity;BMP_temperature;BMP_pressure;BME280_temperature;BME280_humidity;BME280_pressure;Samples;Min_cycle;Max_cycle;Signal;HPM_P1;HPM_P2
2021/09/27 00:00:46;;;;;;;13.13;12.13;;;;;;;17.55;68.92;100512.16;4879089;28;96883;-83
2021/09/27 00:03:12;;;;;;;13.27;11.98;;;;;;;17.46;68.95;100514.53;4879035;28;100604;-84
2021/09/27 00:05:37;;;;;;;14.35;13.15;;;;;;;17.46;69.29;100512.72;4863168;28;101542;-83
2021/09/27 00:08:03;;;;;;;13.88;12.00;;;;;;;17.37;69.62;100508.81;4879142;28;96977;-83
2021/09/27 00:10:37;;;;;;;14.75;13.25;;;;;;;17.39;69.58;100498.97;4878800;28;96905;-83
2021/09/27 00:13:04;;;;;;;13.63;12.40;;;;;;;17.34;69.68;100501.03;4854006;28;101417;-83
2021/09/27 00:15:34;;;;;;;14.65;13.27;;;;;;;17.42;69.63;100506.75;4860582;28;101551;-83
2021/09/27 00:18:00;;;;;;;15.80;12.40;;;;;;;17.33;69.84;100499.31;4872055;28;96761;-83
2021/09/27 00:20:26;;;;;;;14.57;13.25;;;;;;;17.37;69.74;100498.22;4888651;28;96927;-84
2021/09/27 00:22:51;;;;;;;14.80;13.40;;;;;;;17.30;69.85;100502.16;4888229;28;98240;-82
2021/09/27 00:25:20;;;;;;;13.68;12.52;;;;;;;17.28;69.95;100495.22;4871631;28;101763;-84
2021/09/27 00:27:46;;;;;;;17.25;13.98;;;;;;;17.31;70.04;100497.72;4879111;28;97104;-83
2021/09/27 00:30:13;;;;;;;15.75;13.65;;;;;;;17.24;70.36;100496.38;4878981;28;97237;-84
2021/09/27 00:32:39;;;;;;;14.93;13.48;;;;;;;17.23;70.37;100506.13;4861699;28;101554;-83
2021/09/27 00:35:06;;;;;;;16.63;13.15;;;;;;;17.24;70.56;100501.66;4878752;28;101744;-83
2021/09/27 00:37:32;;;;;;;15.18;13.45;;;;;;;17.26;70.38;100500.63;4862600;28;97229;-83
2021/09/27 00:39:57;;;;;;;14.07;12.85;;;;;;;17.27;70.14;100497.03;4878681;28;97104;-82
2021/09/27 00:42:23;;;;;;;16.13;14.52;;;;;;;17.22;70.59;100496.47;4878080;28;100104;-83
2021/09/27 00:44:49;;;;;;;14.82;13.48;;;;;;;17.20;70.35;100491.25;4894311;28;97931;-83
2021/09/27 00:47:15;;;;;;;16.30;13.93;;;;;;;17.17;70.61;100491.44;4863140;28;96982;-83
2021/09/27 00:49:40;;;;;;;14.32;12.93;;;;;;;17.29;69.96;100504.91;4877768;28;97248;-83
2021/09/27 00:52:07;;;;;;;15.88;14.50;;;;;;;17.18;70.67;100495.78;4878633;28;101340;-83
2021/09/27 00:54:35;;;;;;;15.85;14.45;;;;;;;17.11;71.15;100498.91;4878126;28;98124;-84
2021/09/27 00:57:06;;;;;;;14.77;13.38;;;;;;;17.09;71.09;100498.13;4894514;28;96631;-82
2021/09/27 00:59:32;;;;;;;15.23;13.70;;;;;;;17.11;71.05;100498.91;4865617;28;96901;-83
2021/09/27 01:01:58;;;;;;;14.68;13.48;;;;;;;17.11;71.10;100498.91;4852913;28;101160;-83
2021/09/27 01:04:24;;;;;;;17.08;14.73;;;;;;;17.06;71.26;100506.25;4877864;28;101047;-82
2021/09/27 01:07:11;;;;;;;15.60;14.18;;;;;;;17.06;71.19;100501.81;4875382;28;96774;-82
2021/09/27 01:09:37;;;;;;;15.48;13.98;;;;;;;17.06;71.41;100503.59;4877304;28;97283;-82
2021/09/27 01:12:27;;;;;;;16.63;14.95;;;;;;;17.00;71.47;100496.84;4878328;28;101996;-83
2021/09/27 01:15:28;;;;;;;15.38;13.88;;;;;;;17.01;71.24;100503.00;4896940;28;98056;-83
2021/09/27 01:18:00;;;;;;;18.00;14.80;;;;;;;17.03;71.54;100498.47;4889986;28;97214;-83
2021/09/27 01:20:52;;;;;;;15.52;14.02;;;;;;;16.92;71.54;100493.78;4897923;28;96868;-83
2021/09/27 01:23:21;;;;;;;16.95;14.93;;;;;;;16.95;71.31;100483.00;4870324;28;100700;-83
2021/09/27 01:26:19;;;;;;;16.85;15.10;;;;;;;16.87;71.68;100480.81;4896084;28;100545;-83
2021/09/27 01:29:07;;;;;;;16.60;14.90;;;;;;;16.89;71.67;100470.09;4897287;28;97040;-83
2021/09/27 01:32:16;;;;;;;18.63;15.70;;;;;;;16.80;71.64;100479.44;4881110;28;96837;-83
2021/09/27 01:34:45;;;;;;;16.83;15.15;;;;;;;16.74;72.12;100475.31;4862393;28;101531;-82
2021/09/27 01:37:35;;;;;;;16.17;14.60;;;;;;;16.75;71.95;100481.47;4876652;28;101901;-84
2021/09/27 01:40:12;;;;;;;17.38;15.65;;;;;;;16.76;72.12;100483.22;4898577;28;96933;-82
2021/09/27 01:43:05;;;;;;;16.77;15.18;;;;;;;16.73;72.06;100481.56;4871940;28;96922;-83
2021/09/27 01:45:38;;;;;;;18.08;16.30;;;;;;;16.84;71.59;100474.81;4872217;28;100914;-83
2021/09/27 01:48:12;;;;;;;16.92;15.35;;;;;;;16.64;72.23;100470.59;4881081;28;98091;-82
2021/09/27 01:50:44;;;;;;;16.27;14.70;;;;;;;16.64;72.21;100475.91;4895827;28;97054;-83
2021/09/27 01:53:17;;;;;;;16.50;14.82;;;;;;;16.69;71.88;100476.50;4877744;28;96779;-83
2021/09/27 01:55:51;;;;;;;16.52;14.82;;;;;;;16.68;72.30;100482.75;4863359;28;101328;-83
2021/09/27 01:58:34;;;;;;;17.00;15.30;;;;;;;16.81;71.47;100475.84;4880830;28;101528;-83
2021/09/27 02:01:04;;;;;;;15.48;14.02;;;;;;;16.57;72.62;100483.38;4896210;28;96680;-83
2021/09/27 02:03:45;;;;;;;17.15;15.40;;;;;;;16.58;72.77;100478.91;4894965;28;96676;-84
2021/09/27 02:06:34;;;;;;;19.15;17.13;;;;;;;16.80;71.92;100479.44;4865019;28;100847;-83
2021/09/27 02:09:27;;;;;;;18.38;16.63;;;;;;;16.61;72.21;100481.38;4881426;28;101674;-83
2021/09/27 02:12:23;;;;;;;20.95;18.95;;;;;;;16.55;72.47;100474.66;4863406;28;97982;-83
2021/09/27 02:14:54;;;;;;;20.80;18.23;;;;;;;16.49;72.84;100474.97;4887682;28;97113;-83
2021/09/27 02:17:37;;;;;;;20.65;18.63;;;;;;;16.44;72.80;100477.06;4890536;28;98131;-83
2021/09/27 02:20:23;;;;;;;22.65;20.35;;;;;;;16.48;73.12;100473.28;4871864;28;98606;-82
2021/09/27 02:23:02;;;;;;;21.45;19.02;;;;;;;16.48;72.63;100473.28;4881064;28;96777;-83
2021/09/27 02:25:33;;;;;;;21.63;19.23;;;;;;;16.60;72.27;100475.25;4878581;28;96913;-83
2021/09/27 02:28:05;;;;;;;21.33;19.25;;;;;;;16.44;72.96;100475.25;4875782;28;101751;-83
2021/09/27 02:30:50;;;;;;;20.08;18.10;;;;;;;16.53;72.75;100472.09;4879997;28;98173;-83
2021/09/27 02:33:43;;;;;;;20.45;18.52;;;;;;;16.42;72.91;100473.63;4880636;28;97324;-83
2021/09/27 02:36:17;;;;;;;19.25;17.45;;;;;;;16.35;73.50;100473.13;4881439;28;96819;-83
2021/09/27 02:38:51;;;;;;;18.83;16.95;;;;;;;16.35;73.22;100466.94;4864774;28;101074;-83
2021/09/27 02:41:19;;;;;;;18.83;17.08;;;;;;;16.40;73.21;100468.41;4879361;28;101445;-83
2021/09/27 02:43:45;;;;;;;18.83;16.98;;;;;;;16.38;73.39;100472.09;4863995;28;96711;-83
2021/09/27 02:46:12;;;;;;;19.25;17.35;;;;;;;16.43;73.20;100470.88;4880756;28;97001;-83
2021/09/27 02:48:40;;;;;;;19.98;17.98;;;;;;;16.47;72.75;100459.19;4895330;28;98297;-82
2021/09/27 02:51:06;;;;;;;19.38;17.38;;;;;;;16.43;73.02;100462.09;4880974;28;98036;-83
2021/09/27 02:53:32;;;;;;;18.98;17.27;;;;;;;16.30;73.39;100460.13;4876028;28;97210;-83
2021/09/27 02:56:03;;;;;;;18.60;16.65;;;;;;;16.39;73.18;100463.22;4871551;28;97102;-83
2021/09/27 02:58:38;;;;;;;20.15;17.65;;;;;;;16.35;73.03;100459.88;4875787;28;99998;-83
2021/09/27 03:01:19;;;;;;;20.08;17.90;;;;;;;16.33;72.83;100456.47;4887122;28;100359;-83
2021/09/27 03:04:06;;;;;;;20.58;18.55;;;;;;;16.35;73.04;100453.72;4879689;28;96765;-83
2021/09/27 03:06:57;;;;;;;18.55;16.63;;;;;;;16.24;73.60;100455.16;4869511;28;97074;-83
2021/09/27 03:10:00;;;;;;;22.35;17.65;;;;;;;16.18;73.66;100455.50;4879610;28;98639;-82
2021/09/27 03:12:39;;;;;;;21.02;17.13;;;;;;;16.17;73.74;100463.53;4878466;28;100974;-84
2021/09/27 03:15:42;;;;;;;18.63;16.80;;;;;;;16.17;73.77;100460.88;4880263;28;96870;-83
2021/09/27 03:18:32;;;;;;;19.50;17.45;;;;;;;16.06;74.18;100462.34;4891976;28;97043;-83
2021/09/27 03:21:00;;;;;;;17.23;15.73;;;;;;;16.13;73.89;100459.34;4867107;28;98288;-83
2021/09/27 03:23:48;;;;;;;19.52;17.08;;;;;;;16.11;73.57;100458.56;4873162;28;101296;-84
2021/09/27 03:26:33;;;;;;;20.30;17.52;;;;;;;16.05;74.11;100452.66;4870454;28;97024;-84
2021/09/27 03:29:16;;;;;;;18.65;16.83;;;;;;;16.08;73.75;100454.28;4877057;28;97265;-84
2021/09/27 03:31:52;;;;;;;20.23;17.05;;;;;;;16.07;73.76;100448.16;4890143;28;100162;-84
2021/09/27 03:34:52;;;;;;;18.48;16.67;;;;;;;16.04;73.95;100447.47;4895793;28;101866;-83
2021/09/27 03:37:28;;;;;;;20.33;18.02;;;;;;;16.05;73.94;100452.66;4914903;28;97102;-83
2021/09/27 03:39:57;;;;;;;21.60;17.63;;;;;;;16.09;73.82;100450.72;4879161;28;96930;-84
2021/09/27 03:42:52;;;;;;;22.15;18.77;;;;;;;16.15;73.44;100445.09;4879133;28;98647;-83
2021/09/27 03:45:17;;;;;;;19.00;17.20;;;;;;;16.04;74.04;100453.63;4863339;28;98028;-83
2021/09/27 03:47:58;;;;;;;20.00;17.95;;;;;;;15.93;74.19;100452.50;4895521;28;97168;-83
2021/09/27 03:50:28;;;;;;;24.25;19.23;;;;;;;15.84;74.57;100445.91;4879793;28;97253;-84
2021/09/27 03:53:16;;;;;;;20.50;18.60;;;;;;;15.96;74.35;100452.31;4886462;28;98058;-84
2021/09/27 03:55:55;;;;;;;18.80;17.10;;;;;;;15.92;74.47;100451.66;4886914;28;97563;-83
2021/09/27 03:58:27;;;;;;;19.92;17.77;;;;;;;15.94;74.07;100452.44;4879807;28;97206;-83
2021/09/27 04:01:04;;;;;;;;;;;;;;;15.93;74.23;100449.84;4885970;28;97122;-83
2021/09/27 04:03:43;;;;;;;22.23;19.92;;;;;;;15.87;74.32;100442.25;4873557;28;97625;-83
2021/09/27 04:06:27;;;;;;;21.67;19.58;;;;;;;15.89;74.12;100446.50;4879099;28;100708;-83
2021/09/27 04:09:05;;;;;;;22.48;20.08;;;;;;;15.93;74.47;100445.41;4877307;28;96819;-84
2021/09/27 04:11:48;;;;;;;21.25;19.35;;;;;;;15.81;74.41;100438.13;4866645;28;96808;-84
2021/09/27 04:14:25;;;;;;;20.55;18.70;;;;;;;15.91;73.96;100439.34;4876636;28;98073;-83
2021/09/27 04:17:09;;;;;;;22.73;20.25;;;;;;;15.82;74.52;100439.81;4878939;28;101385;-83
2021/09/27 04:19:57;;;;;;;22.83;20.73;;;;;;;15.75;74.61;100433.16;4889870;28;97099;-83
2021/09/27 04:22:35;;;;;;;22.65;20.30;;;;;;;15.69;74.97;100436.16;4879342;28;96917;-82
2021/09/27 04:25:17;;;;;;;23.05;20.60;;;;;;;15.72;74.85;100435.97;4879685;28;98609;-83
2021/09/27 04:28:00;;;;;;;22.67;20.42;;;;;;;15.72;74.73;100438.63;4903065;28;101574;-83
2021/09/27 04:30:32;;;;;;;23.75;21.15;;;;;;;15.73;74.62;100441.19;4878420;28;96852;-84
2021/09/27 04:33:19;;;;;;;22.67;20.45;;;;;;;15.67;74.61;100444.13;4893895;28;96920;-83
2021/09/27 04:36:15;;;;;;;21.75;19.52;;;;;;;15.72;74.70;100452.72;4894463;28;98582;-82
2021/09/27 04:38:40;;;;;;;20.65;18.55;;;;;;;15.77;74.08;100450.69;4882599;28;98392;-83
2021/09/27 04:41:48;;;;;;;21.27;19.25;;;;;;;15.74;74.21;100464.06;4863226;28;96748;-83
2021/09/27 04:44:25;;;;;;;24.70;19.98;;;;;;;15.68;74.41;100450.28;4837901;28;96773;-83
2021/09/27 04:47:16;;;;;;;24.52;20.05;;;;;;;15.62;74.72;100454.13;4872296;28;101744;-82
2021/09/27 04:49:57;;;;;;;21.52;19.33;;;;;;;15.65;74.61;100459.25;4878228;28;101647;-84
2021/09/27 04:52:25;;;;;;;23.60;21.13;;;;;;;15.70;74.40;100453.72;4879109;28;96960;-83
2021/09/27 04:55:19;;;;;;;22.50;20.42;;;;;;;15.70;74.28;100451.06;4890688;28;97039;-83
2021/09/27 04:58:03;;;;;;;23.27;20.85;;;;;;;15.75;74.06;100441.97;4876124;28;102048;-83
2021/09/27 05:01:06;;;;;;;21.95;19.75;;;;;;;15.73;74.33;100450.91;4891911;28;98257;-83
2021/09/27 05:04:03;;;;;;;23.50;21.02;;;;;;;15.74;74.65;100450.00;4888396;28;96753;-83
2021/09/27 05:06:34;;;;;;;22.45;19.30;;;;;;;15.78;74.49;100455.03;4892632;28;97592;-85
2021/09/27 05:09:15;;;;;;;;;;;;;;;15.73;74.55;100451.75;4878233;28;101792;-83
2021/09/27 05:12:17;;;;;;;24.20;21.42;;;;;;;15.81;74.19;100460.16;4893339;28;101074;-83
2021/09/27 05:15:25;;;;;;;24.35;21.90;;;;;;;15.78;74.34;100455.03;4883993;28;97135;-83
2021/09/27 05:18:32;;;;;;;23.92;20.20;;;;;;;15.84;74.50;100452.03;4852130;29;97338;-83
2021/09/27 05:21:16;;;;;;;23.10;20.73;;;;;;;15.92;74.08;100445.50;4795867;29;101354;-84
2021/09/27 05:24:06;;;;;;;23.00;20.77;;;;;;;15.98;74.25;100459.25;4852981;28;101641;-83
2021/09/27 05:26:47;;;;;;;24.05;21.70;;;;;;;16.10;73.93;100455.06;4872887;28;98091;-84
2021/09/27 05:29:17;;;;;;;24.30;21.88;;;;;;;16.26;73.28;100463.91;4856249;28;97885;-83
2021/09/27 05:31:49;;;;;;;25.60;23.05;;;;;;;16.46;72.45;100464.56;4840274;28;101536;-83
2021/09/27 05:34:57;;;;;;;24.52;21.92;;;;;;;16.33;73.03;100472.34;4873302;28;98066;-83
2021/09/27 05:37:56;;;;;;;26.35;23.65;;;;;;;16.31;73.16;100474.22;4851629;28;97429;-83
2021/09/27 05:40:22;;;;;;;26.80;23.90;;;;;;;16.51;72.31;100481.06;4870036;28;97923;-83
2021/09/27 05:43:03;;;;;;;24.33;21.88;;;;;;;16.42;73.00;100473.63;4840007;28;101395;-83
2021/09/27 05:45:43;;;;;;;25.30;22.93;;;;;;;16.49;72.53;100472.34;4841434;28;100121;-85
2021/09/27 05:48:21;;;;;;;25.77;22.27;;;;;;;16.51;72.35;100473.13;4848523;28;96972;-85
2021/09/27 05:51:05;;;;;;;26.23;23.67;;;;;;;16.68;71.77;100472.16;4888769;28;96809;-85
2021/09/27 05:54:00;;;;;;;26.08;23.42;;;;;;;16.55;72.34;100473.78;4854343;28;101883;-84
2021/09/27 05:57:03;;;;;;;34.53;24.00;;;;;;;16.64;71.81;100471.50;4888121;28;98397;-83
2021/09/27 05:59:38;;;;;;;25.77;22.52;;;;;;;16.93;71.34;100490.22;4875295;28;96805;-83
2021/09/27 06:02:31;;;;;;;27.13;23.90;;;;;;;17.02;70.98;100491.47;4873224;28;97427;-84
2021/09/27 06:05:17;;;;;;;26.67;24.13;;;;;;;17.19;70.67;100489.53;4873613;28;100904;-83
2021/09/27 06:07:46;;;;;;;25.20;22.65;;;;;;;17.24;70.47;100496.38;4881807;28;100986;-83
2021/09/27 06:10:20;;;;;;;26.00;23.25;;;;;;;17.31;70.40;100493.28;4884100;28;97245;-83
2021/09/27 06:13:06;;;;;;;27.77;23.75;;;;;;;17.45;70.00;100489.78;4890431;28;96980;-83
2021/09/27 06:15:58;;;;;;;26.60;23.83;;;;;;;17.87;68.77;100482.84;4893780;28;101709;-85
2021/09/27 06:18:27;;;;;;;29.58;24.65;;;;;;;18.03;68.00;100478.25;4870134;28;98407;-81
2021/09/27 06:21:03;;;;;;;29.13;24.48;;;;;;;18.12;67.56;100478.66;4892993;28;96817;-87
2021/09/27 06:23:57;;;;;;;27.20;24.13;;;;;;;18.05;68.06;100487.00;4886465;28;97880;-87
2021/09/27 06:26:24;;;;;;;26.70;23.98;;;;;;;18.08;68.43;100470.88;4887138;28;96807;-87
2021/09/27 06:29:02;;;;;;;31.42;25.10;;;;;;;18.24;67.63;100480.56;4891128;28;98418;-83
2021/09/27 06:31:33;;;;;;;29.70;24.85;;;;;;;18.44;66.94;100471.28;4880633;28;98377;-83
2021/09/27 06:34:04;;;;;;;;;;;;;;;18.71;66.43;100473.97;4879143;28;97404;-84
2021/09/27 06:36:32;;;;;;;37.72;31.25;;;;;;;18.99;65.55;100473.88;4871185;28;101193;-84
2021/09/27 06:39:00;;;;;;;42.90;33.83;;;;;;;19.00;65.24;100480.91;4858974;28;101731;-83
2021/09/27 06:41:28;;;;;;;39.72;31.38;;;;;;;18.81;66.04;100480.41;4856288;28;97154;-84
2021/09/27 06:43:53;;;;;;;40.25;32.75;;;;;;;18.50;66.76;100474.41;4890757;28;97315;-85
2021/09/27 06:46:20;;;;;;;40.05;31.77;;;;;;;18.29;67.58;100473.13;4875539;28;100702;-88
2021/09/27 06:48:49;;;;;;;39.50;30.08;;;;;;;18.20;68.17;100479.03;4887087;28;100328;-84
2021/09/27 06:51:16;;;;;;;36.30;26.55;;;;;;;18.13;68.17;100478.56;4870217;28;97265;-89
2021/09/27 06:53:41;;;;;;;31.45;25.98;;;;;;;18.31;67.93;100479.19;4857846;28;98232;-80
2021/09/27 06:56:07;;;;;;;30.42;25.17;;;;;;;18.55;67.17;100468.78;4865730;28;98270;-90
2021/09/27 06:58:32;;;;;;;26.30;23.30;;;;;;;18.43;67.72;100472.25;4874613;28;101105;-85
2021/09/27 07:00:58;;;;;;;28.60;23.98;;;;;;;18.80;66.32;100480.53;4851570;28;97290;-87
2021/09/27 07:03:24;;;;;;;28.38;24.83;;;;;;;18.83;66.51;100477.66;4864112;28;96985;-86
2021/09/27 07:05:50;;;;;;;25.52;22.83;;;;;;;19.10;65.92;100473.16;4877734;28;98481;-88
2021/09/27 07:08:18;;;;;;;26.10;23.17;;;;;;;19.08;65.31;100469.75;4881111;28;96948;-84
2021/09/27 07:10:44;;;;;;;26.55;23.98;;;;;;;19.14;65.48;100463.16;4878296;28;97045;-86
2021/09/27 07:13:11;;;;;;;30.00;23.67;;;;;;;19.18;65.15;100465.50;4864789;28;97479;-86
2021/09/27 07:15:37;;;;;;;26.65;23.85;;;;;;;19.35;64.84;100460.88;4879501;28;98120;-84
2021/09/27 07:18:03;;;;;;;28.70;22.08;;;;;;;19.78;63.83;100463.22;4899520;28;98327;-89
2021/09/27 07:20:29;;;;;;;28.45;25.45;;;;;;;20.33;62.22;100460.16;4884032;28;97038;-87
2021/09/27 07:22:56;;;;;;;28.27;25.33;;;;;;;20.90;60.53;100464.00;4868856;28;97690;-86
2021/09/27 07:25:23;;;;;;;26.73;24.10;;;;;;;20.97;60.34;100461.69;4866201;28;102104;-86
2021/09/27 07:27:48;;;;;;;31.17;27.33;;;;;;;20.52;61.18;100462.34;4873501;28;98137;-83
2021/09/27 07:30:15;;;;;;;29.48;26.38;;;;;;;20.44;61.24;100459.34;4875599;28;97470;-83
2021/09/27 07:32:41;;;;;;;25.95;23.10;;;;;;;20.32;62.06;100455.78;4861291;28;97253;-83
2021/09/27 07:35:08;;;;;;;26.30;23.50;;;;;;;20.33;62.31;100448.63;4869723;28;100805;-80
2021/09/27 07:37:34;;;;;;;30.13;22.73;;;;;;;20.05;62.85;100450.63;4867889;28;100200;-80
2021/09/27 07:40:00;;;;;;;30.73;24.08;;;;;;;20.34;62.22;100447.69;4869023;28;97037;-81
2021/09/27 07:42:25;;;;;;;26.92;23.92;;;;;;;20.39;61.97;100448.19;4870545;28;97015;-83
2021/09/27 07:44:51;;;;;;;26.85;24.15;;;;;;;20.38;61.96;100448.31;4869316;28;101021;-81
2021/09/27 07:47:16;;;;;;;30.67;27.00;;;;;;;19.93;63.25;100450.66;4868190;28;101495;-83
2021/09/27 07:49:42;;;;;;;28.63;25.83;;;;;;;19.92;63.49;100462.25;4872332;28;96840;-82
2021/09/27 07:52:07;;;;;;;31.00;27.65;;;;;;;19.81;63.88;100450.56;4865243;28;97529;-85
2021/09/27 07:54:34;;;;;;;33.55;29.83;;;;;;;20.06;63.20;100457.66;4875340;28;101104;-83
2021/09/27 07:56:59;;;;;;;36.53;28.65;;;;;;;19.97;63.60;100458.31;4881430;28;98229;-83
2021/09/27 07:59:25;;;;;;;32.17;28.80;;;;;;;19.77;64.02;100456.19;4887254;28;97931;-83
2021/09/27 08:01:50;;;;;;;30.63;27.20;;;;;;;19.91;63.65;100461.41;4873509;28;96773;-89
2021/09/27 08:04:17;;;;;;;31.17;27.33;;;;;;;20.50;62.12;100452.72;4863212;28;98128;-91
2021/09/27 08:06:43;;;;;;;30.60;27.27;;;;;;;20.62;61.76;100459.00;4866698;28;101099;-89
2021/09/27 08:09:10;;;;;;;30.27;27.02;;;;;;;21.06;60.89;100454.81;4876304;28;97551;-92
2021/09/27 08:11:39;;;;;;;35.05;31.55;;;;;;;21.08;60.35;100453.75;4860116;28;96998;-86
2021/09/27 08:14:04;;;;;;;33.00;29.50;;;;;;;21.05;60.83;100456.66;4875178;28;97802;-83
2021/09/27 08:16:31;;;;;;;32.95;29.63;;;;;;;21.15;60.29;100452.31;4878738;28;98402;-87
2021/09/27 08:18:57;;;;;;;30.63;27.55;;;;;;;21.68;59.00;100447.34;4865749;28;96829;-83
2021/09/27 08:21:22;;;;;;;27.95;25.08;;;;;;;22.62;56.70;100442.50;4876332;28;97256;-87
2021/09/27 08:23:48;;;;;;;30.00;25.58;;;;;;;22.88;55.73;100439.50;4858870;28;101232;-87
2021/09/27 08:26:14;;;;;;;25.50;22.67;;;;;;;22.66;56.35;100441.31;4860778;28;101193;-85
2021/09/27 08:28:41;;;;;;;27.00;24.27;;;;;;;23.60;53.88;100442.28;4884212;28;97590;-85
2021/09/27 08:31:12;;;;;;;25.05;22.30;;;;;;;24.23;52.67;100435.91;4883045;28;97031;-85
2021/09/27 08:33:38;;;;;;;27.65;24.85;;;;;;;23.70;53.68;100429.78;4856445;28;101748;-80
2021/09/27 08:36:06;;;;;;;29.27;25.63;;;;;;;24.21;52.07;100436.06;4866103;28;99484;-84
2021/09/27 08:38:37;;;;;;;30.50;24.27;;;;;;;24.08;52.91;100436.28;4860773;28;98227;-84
2021/09/27 08:41:24;;;;;;;26.05;23.42;;;;;;;24.36;52.21;100434.66;4847257;28;97279;-84
2021/09/27 08:44:23;;;;;;;29.27;22.27;;;;;;;23.83;53.12;100436.78;4859663;28;98273;-86
2021/09/27 08:47:07;;;;;;;25.52;22.75;;;;;;;24.36;51.93;100433.81;4872381;28;101877;-85
2021/09/27 08:49:45;;;;;;;23.40;21.27;;;;;;;25.24;49.76;100435.56;4860221;28;97090;-84
2021/09/27 08:52:14;;;;;;;21.35;19.33;;;;;;;25.66;49.37;100445.94;4875390;28;96892;-85
2021/09/27 08:54:41;;;;;;;21.48;19.40;;;;;;;25.18;49.83;100438.84;4858291;28;100257;-84
2021/09/27 08:57:12;;;;;;;23.63;21.13;;;;;;;26.18;47.87;100438.25;4881845;28;97431;-85
2021/09/27 08:59:47;;;;;;;22.17;20.17;;;;;;;25.70;48.38;100439.28;4888589;28;97976;-81
2021/09/27 09:02:31;;;;;;;23.50;20.88;;;;;;;25.54;48.91;100439.06;4881307;28;97310;-84
2021/09/27 09:05:00;;;;;;;22.88;20.38;;;;;;;24.20;51.81;100445.06;4876829;28;98477;-84
2021/09/27 09:07:26;;;;;;;24.10;21.73;;;;;;;24.11;52.21;100448.56;4889075;28;101152;-86
2021/09/27 09:10:00;;;;;;;24.92;22.27;;;;;;;23.99;52.66;100439.78;4872058;28;96771;-85
2021/09/27 09:12:44;;;;;;;24.63;22.25;;;;;;;25.44;49.48;100441.75;4872560;28;96908;-85
2021/09/27 09:15:18;;;;;;;24.73;22.30;;;;;;;24.53;51.03;100438.53;4856238;28;101286;-83
2021/09/27 09:17:47;;;;;;;25.25;22.70;;;;;;;24.15;52.15;100437.44;4886990;28;99506;-85
2021/09/27 09:20:21;;;;;;;24.50;20.77;;;;;;;24.35;51.96;100432.13;4874866;28;98053;-85
2021/09/27 09:22:47;;;;;;;24.75;21.70;;;;;;;24.59;51.68;100432.63;4873016;28;97474;-86
2021/09/27 09:25:22;;;;;;;25.83;23.20;;;;;;;26.08;48.41;100423.16;4872428;28;98477;-84
2021/09/27 09:27:48;;;;;;;23.30;21.20;;;;;;;26.00;48.70;100426.56;4862935;28;99955;-86
2021/09/27 09:30:14;;;;;;;25.42;22.92;;;;;;;26.24;47.50;100435.94;4863584;28;97403;-86
2021/09/27 09:32:39;;;;;;;23.40;21.35;;;;;;;24.69;50.92;100442.50;4861236;28;97271;-86
2021/09/27 09:35:27;;;;;;;25.70;23.23;;;;;;;24.16;52.25;100441.81;4875349;28;101250;-85
2021/09/27 09:38:03;;;;;;;24.38;21.90;;;;;;;24.52;51.94;100442.22;4874227;28;97978;-84
2021/09/27 09:40:52;;;;;;;24.58;22.17;;;;;;;24.58;51.91;100438.97;4877242;28;96887;-85
2021/09/27 09:43:29;;;;;;;27.08;24.38;;;;;;;24.79;50.59;100435.31;4877869;28;97333;-84
2021/09/27 09:46:29;;;;;;;26.33;23.95;;;;;;;24.63;51.24;100438.53;4873491;28;98541;-85
2021/09/27 09:49:10;;;;;;;27.33;24.73;;;;;;;24.26;51.65;100433.81;4874398;28;98082;-84
2021/09/27 09:51:41;;;;;;;26.75;24.33;;;;;;;23.63;53.42;100433.13;4858370;28;97105;-85
2021/09/27 09:54:22;;;;;;;25.98;23.58;;;;;;;23.12;55.04;100437.44;4863667;28;96975;-85
2021/09/27 09:57:06;;;;;;;26.77;24.10;;;;;;;22.87;55.72;100440.50;4888317;28;97684;-85
2021/09/27 09:59:37;;;;;;;26.48;23.98;;;;;;;22.51;56.64;100440.72;4850498;28;101411;-84
2021/09/27 10:02:07;;;;;;;27.73;24.98;;;;;;;22.43;56.72;100435.16;4879916;28;97902;-84
2021/09/27 10:04:42;;;;;;;31.13;25.43;;;;;;;22.42;56.79;100433.44;4862739;28;97040;-86
2021/09/27 10:07:12;;;;;;;32.15;26.15;;;;;;;22.69;56.08;100438.38;4878201;28;97680;-84
2021/09/27 10:10:02;;;;;;;28.55;25.40;;;;;;;22.91;55.73;100429.38;4873943;28;100863;-81
2021/09/27 10:12:42;;;;;;;28.27;25.52;;;;;;;22.97;55.09;100428.06;4862011;28;97392;-87
2021/09/27 10:15:14;;;;;;;29.00;26.23;;;;;;;22.67;56.24;100432.28;4889907;28;97410;-85
2021/09/27 10:17:39;;;;;;;27.13;24.60;;;;;;;22.79;56.08;100433.94;4875350;28;100347;-82
2021/09/27 10:20:08;;;;;;;30.17;27.17;;;;;;;22.92;55.64;100428.44;4876030;28;101336;-85
2021/09/27 10:22:39;;;;;;;31.77;28.60;;;;;;;22.67;55.95;100432.28;4874511;28;97422;-86
2021/09/27 10:25:23;;;;;;;;;;;;;;;22.58;56.48;100430.38;4868091;28;96959;-86
2021/09/27 10:27:50;;;;;;;32.05;28.65;;;;;;;22.43;56.47;100432.50;4857798;28;101587;-86
2021/09/27 10:30:20;;;;;;;31.88;28.55;;;;;;;22.25;56.81;100426.81;4880082;28;97985;-86
2021/09/27 10:32:47;;;;;;;30.88;27.63;;;;;;;21.89;58.17;100434.09;4876389;28;96854;-86
2021/09/27 10:35:24;;;;;;;33.30;29.25;;;;;;;21.90;58.01;100425.13;4885781;28;96790;-83
2021/09/27 10:37:54;;;;;;;33.97;30.55;;;;;;;21.82;58.00;100427.56;4872273;28;100158;-85
2021/09/27 10:40:20;;;;;;;33.75;30.30;;;;;;;22.28;57.16;100423.03;4873423;28;101385;-86
2021/09/27 10:42:49;;;;;;;34.70;30.95;;;;;;;22.48;56.17;100429.41;4862890;28;98063;-86
2021/09/27 10:45:16;;;;;;;32.42;28.98;;;;;;;22.41;56.72;100426.41;4872684;28;97197;-85
2021/09/27 10:47:46;;;;;;;33.17;29.63;;;;;;;22.56;56.29;100419.78;4859658;28;101213;-80
2021/09/27 10:50:17;;;;;;;31.63;28.42;;;;;;;22.35;56.84;100421.56;4866814;28;101249;-86
2021/09/27 10:53:06;;;;;;;31.55;28.58;;;;;;;22.49;56.75;100415.94;4894742;28;97244;-81
2021/09/27 10:55:51;;;;;;;33.63;27.35;;;;;;;22.37;57.18;100420.47;4888668;28;97321;-86
2021/09/27 10:58:56;;;;;;;31.98;28.42;;;;;;;22.27;57.15;100424.84;4883712;28;101510;-86
2021/09/27 11:01:44;;;;;;;32.15;29.00;;;;;;;21.84;58.10;100432.78;4890650;28;97620;-86
2021/09/27 11:04:22;;;;;;;31.15;28.05;;;;;;;21.95;58.25;100421.22;4877586;28;97235;-85
2021/09/27 11:06:54;;;;;;;36.40;31.05;;;;;;;22.11;57.55;100422.56;4872785;28;97398;-85
2021/09/27 11:09:25;;;;;;;35.63;31.92;;;;;;;21.92;57.83;100433.88;4876535;28;98497;-85
2021/09/27 11:12:23;;;;;;;35.85;32.10;;;;;;;21.86;58.23;100421.00;4860918;28;100146;-83
2021/09/27 11:14:52;;;;;;;38.28;34.38;;;;;;;21.54;58.88;100423.53;4867091;28;98078;-85
2021/09/27 11:17:40;;;;;;;34.70;31.15;;;;;;;21.01;60.16;100433.84;4862091;28;96969;-85
2021/09/27 11:20:14;;;;;;;34.08;30.58;;;;;;;20.96;60.90;100434.19;4860190;28;101790;-83
2021/09/27 11:23:06;;;;;;;35.60;31.63;;;;;;;20.85;61.15;100428.78;4878056;28;100391;-80
2021/09/27 11:25:38;;;;;;;36.20;30.77;;;;;;;21.24;60.51;100434.75;4898312;28;97421;-86
2021/09/27 11:28:03;;;;;;;32.75;29.55;;;;;;;21.39;60.13;100428.25;4877203;28;97359;-85
2021/09/27 11:30:58;;;;;;;35.85;30.73;;;;;;;21.40;59.88;100429.09;4876069;28;101059;-85
2021/09/27 11:33:27;;;;;;;39.55;35.60;;;;;;;21.07;60.29;100433.38;4845509;28;100047;-81
2021/09/27 11:35:54;;;;;;;41.28;36.90;;;;;;;20.86;60.97;100427.84;4888850;28;97276;-84
2021/09/27 11:38:33;;;;;;;44.17;39.47;;;;;;;20.74;61.55;100434.97;4875194;28;96881;-81
2021/09/27 11:41:10;;;;;;;37.92;33.90;;;;;;;20.75;61.44;100433.13;4875971;28;101114;-81
2021/09/27 11:43:49;;;;;;;41.65;35.33;;;;;;;20.60;61.92;100429.78;4887298;28;99575;-79
2021/09/27 11:46:43;;;;;;;40.83;33.38;;;;;;;20.69;61.88;100441.59;4889490;28;97599;-81